Time;durP1;ratioP1;P1;durP2;ratioP2;P2;SDS_P1;SDS_P2;PMS_P1;PMS_P2;Temp;Humidity;BMP_temperature;BMP_pressure;BME280_temperature;BME280_humidity;BME280_pressure;Samples;Min_cycle;Max_cycle;Signal;HPM_P1;HPM_P2
2022/09/05 00:01:46;;;;;;;10.25;4.15;;;;;;;18.19;100.00;95568.16;5101837;27;20059;-65
2022/09/05 00:04:34;;;;;;;4.93;3.85;;;;;;;18.18;100.00;95564.72;5072716;28;20440;-65
2022/09/05 00:07:12;;;;;;;4.53;3.67;;;;;;;18.23;100.00;95566.59;5102722;28;20045;-65
2022/09/05 00:10:21;;;;;;;8.50;4.47;;;;;;;18.29;100.00;95565.53;5105781;28;20039;-65
2022/09/05 00:12:50;;;;;;;7.10;4.50;;;;;;;18.30;100.00;95567.13;5103822;28;20039;-65
2022/09/05 00:15:47;;;;;;;7.78;4.07;;;;;;;18.25;100.00;95567.13;5102712;28;20546;-66
2022/09/05 00:18:41;;;;;;;5.65;4.28;;;;;;;18.27;100.00;95572.91;5102185;28;20035;-65
2022/09/05 00:21:27;;;;;;;4.78;4.07;;;;;;;18.28;100.00;95563.97;5079541;28;20059;-66
2022/09/05 00:24:29;;;;;;;5.28;4.20;;;;;;;18.35;100.00;95559.22;5081954;28;20584;-64
2022/09/05 00:27:19;;;;;;;8.48;4.47;;;;;;;18.29;100.00;95565.53;5100272;28;20566;-65
2022/09/05 00:30:16;;;;;;;6.18;4.15;;;;;;;18.27;100.00;95562.38;5084247;28;20050;-65
2022/09/05 00:33:17;;;;;;;6.05;4.90;;;;;;;18.21;100.00;95563.41;5100544;28;20517;-65
2022/09/05 00:35:56;;;;;;;8.55;5.07;;;;;;;18.21;100.00;95568.69;5101080;28;20512;-65
2022/09/05 00:38:27;;;;;;;9.82;5.60;;;;;;;18.13;100.00;95573.44;5100417;28;20142;-65
2022/09/05 00:41:11;;;;;;;6.40;4.40;;;;;;;18.14;100.00;95569.72;5102389;28;20483;-65
2022/09/05 00:43:42;;;;;;;5.47;4.72;;;;;;;18.14;100.00;95575.00;5104540;27;20265;-65
2022/09/05 00:46:25;;;;;;;5.97;4.82;;;;;;;18.08;100.00;95581.31;5108808;27;20363;-64
2022/09/05 00:49:15;;;;;;;6.30;4.60;;;;;;;18.09;100.00;95572.34;5102639;28;20044;-65
2022/09/05 00:51:59;;;;;;;6.43;4.28;;;;;;;18.03;100.00;95578.66;5102627;27;20044;-65
2022/09/05 00:54:31;;;;;;;4.88;4.38;;;;;;;18.01;100.00;95580.78;5106400;27;20054;-65
2022/09/05 00:57:29;;;;;;;5.15;3.90;;;;;;;18.02;100.00;95571.78;5101365;28;20703;-65
2022/09/05 01:00:15;;;;;;;5.15;3.90;;;;;;;18.01;100.00;95579.97;5105367;27;20052;-65
2022/09/05 01:03:08;;;;;;;6.97;4.93;;;;;;;17.99;100.00;95577.59;5102081;28;20486;-66
2022/09/05 01:05:44;;;;;;;6.22;4.70;;;;;;;17.93;100.00;95581.25;5099772;27;20126;-66
2022/09/05 01:08:45;;;;;;;6.95;4.43;;;;;;;17.93;100.00;95589.16;5104756;27;20047;-66
2022/09/05 01:11:31;;;;;;;8.77;4.28;;;;;;;17.75;100.00;95551.69;5106225;27;20376;-65
2022/09/05 01:14:20;;;;;;;8.68;4.70;;;;;;;17.95;100.00;95581.78;5104352;27;20128;-66
2022/09/05 01:16:53;;;;;;;7.97;4.45;;;;;;;17.98;100.00;95583.13;5087291;27;20047;-65
2022/09/05 01:19:52;;;;;;;8.57;4.90;;;;;;;17.96;100.00;95586.03;5109101;27;20047;-65
2022/09/05 01:22:37;;;;;;;5.63;4.65;;;;;;;17.96;100.00;95578.91;5065299;27;20046;-65
2022/09/05 01:25:22;;;;;;;8.82;4.47;;;;;;;17.95;100.00;95587.06;5105711;27;20040;-65
2022/09/05 01:27:57;;;;;;;6.07;4.95;;;;;;;17.96;100.00;95583.38;5104106;27;20047;-65
2022/09/05 01:31:22;;;;;;;6.03;4.43;;;;;;;17.95;100.00;95582.59;5108554;27;20039;-65
2022/09/05 01:34:13;;;;;;;5.90;4.80;;;;;;;17.94;100.00;95574.94;5108176;27;20075;-66
2022/09/05 01:36:52;;;;;;;6.85;4.20;;;;;;;17.93;100.00;95578.63;5107739;27;20047;-65
2022/09/05 01:39:41;;;;;;;8.60;4.95;;;;;;;17.89;100.00;95573.06;5106659;27;20046;-65
2022/09/05 01:43:13;;;;;;;7.47;4.28;;;;;;;17.85;100.00;95576.47;5108067;27;20051;-65
2022/09/05 01:45:59;;;;;;;9.50;4.32;;;;;;;17.84;100.00;95574.88;5058311;27;20533;-65
2022/09/05 01:48:47;;;;;;;4.72;4.15;;;;;;;17.85;100.00;95579.09;5106384;27;20051;-65
2022/09/05 01:51:21;;;;;;;8.05;4.85;;;;;;;17.82;100.00;95571.72;5106632;27;20062;-65
2022/09/05 01:54:08;;;;;;;6.20;4.22;;;;;;;17.84;100.00;95574.88;5105528;27;20526;-66
2022/09/05 01:57:18;;;;;;;4.70;3.90;;;;;;;17.86;100.00;95584.16;5106913;27;20512;-65
2022/09/05 01:59:50;;;;;;;;;;;;;;;17.87;100.00;95574.41;5105726;27;20052;-66
2022/09/05 02:02:35;;;;;;;4.78;3.47;;;;;;;17.86;100.00;95583.34;5105423;27;20448;-65
2022/09/05 02:05:31;;;;;;;5.72;3.58;;;;;;;17.86;100.00;95593.88;5105104;27;20680;-65
2022/09/05 02:08:15;;;;;;;5.43;3.83;;;;;;;17.79;100.00;95578.31;5106738;27;20158;-66
2022/09/05 02:11:08;;;;;;;4.43;3.60;;;;;;;17.61;100.00;95558.47;5106919;27;20044;-65
2022/09/05 02:13:35;;;;;;;5.05;3.40;;;;;;;17.74;100.00;95581.69;5085813;27;20096;-66
2022/09/05 02:16:24;;;;;;;5.10;3.45;;;;;;;17.75;100.00;95582.47;5106509;27;20044;-65
2022/09/05 02:18:54;;;;;;;4.90;3.63;;;;;;;17.75;100.00;95567.50;5105470;27;20066;-66
2022/09/05 02:21:26;;;;;;;6.30;3.78;;;;;;;17.70;100.00;95575.38;5108089;27;20043;-65
2022/09/05 02:24:05;;;;;;;5.60;4.35;;;;;;;17.72;100.00;95583.81;5106720;27;20032;-65
2022/09/05 02:26:50;;;;;;;4.90;3.97;;;;;;;17.64;100.00;95571.09;5104143;27;20146;-64
2022/09/05 02:29:42;;;;;;;5.78;3.40;;;;;;;17.65;100.00;95577.97;5102257;27;20041;-65
2022/09/05 02:32:20;;;;;;;4.65;3.65;;;;;;;17.61;100.00;95582.19;5086273;28;20514;-65
2022/09/05 02:35:05;;;;;;;8.77;4.15;;;;;;;17.61;100.00;95576.91;5088287;28;20043;-65
2022/09/05 02:37:44;;;;;;;7.85;3.83;;;;;;;17.57;100.00;95578.44;5086562;27;20050;-65
2022/09/05 02:40:37;;;;;;;6.22;3.90;;;;;;;17.53;100.00;95580.03;5088180;27;20088;-65
2022/09/05 02:43:30;;;;;;;5.00;3.75;;;;;;;17.56;100.00;95579.53;5102244;27;20079;-65
2022/09/05 02:46:29;;;;;;;7.10;4.18;;;;;;;17.56;100.00;95584.78;5105101;27;20067;-66
2022/09/05 02:48:59;;;;;;;4.57;3.45;;;;;;;17.60;100.00;95583.22;5103975;27;20554;-65
2022/09/05 02:51:44;;;;;;;4.60;3.60;;;;;;;17.53;100.00;95590.56;5105055;27;20433;-65
2022/09/05 02:54:35;;;;;;;5.05;4.18;;;;;;;17.53;100.00;95585.28;5109113;27;20063;-65
2022/09/05 02:57:46;;;;;;;9.32;4.38;;;;;;;17.52;100.00;95584.50;5106154;27;20046;-66
2022/09/05 03:00:48;;;;;;;5.53;4.28;;;;;;;17.50;100.00;95593.69;5104445;27;20062;-65
2022/09/05 03:03:34;;;;;;;5.70;4.40;;;;;;;17.48;100.00;95593.16;5110465;27;20043;-65
2022/09/05 03:06:17;;;;;;;5.53;4.10;;;;;;;17.47;100.00;95592.38;5101755;27;20515;-65
2022/09/05 03:09:09;;;;;;;5.63;4.65;;;;;;;17.41;100.00;95588.13;5103409;27;20044;-66
2022/09/05 03:12:07;;;;;;;9.20;4.85;;;;;;;17.41;100.00;95592.59;5100323;27;20523;-66
2022/09/05 03:15:15;;;;;;;5.45;4.78;;;;;;;17.38;100.00;95592.06;5105855;27;20040;-66
2022/09/05 03:17:53;;;;;;;5.32;4.25;;;;;;;17.34;100.00;95596.25;5100805;27;20046;-65
2022/09/05 03:21:14;;;;;;;5.57;4.35;;;;;;;17.30;100.00;95600.44;5105162;27;20051;-64
2022/09/05 03:24:04;;;;;;;6.30;5.00;;;;;;;17.29;100.00;95598.84;5052701;28;20053;-66
2022/09/05 03:27:00;;;;;;;5.78;4.60;;;;;;;17.27;100.00;95608.03;5100465;28;20507;-65
2022/09/05 03:29:45;;;;;;;6.43;4.82;;;;;;;17.25;100.00;95605.69;5102043;27;20446;-66
2022/09/05 03:32:47;;;;;;;8.10;4.60;;;;;;;17.21;100.00;95609.84;5105457;27;20046;-68
2022/09/05 03:35:29;;;;;;;5.07;4.35;;;;;;;17.19;100.00;95601.41;5094966;28;21442;-68
2022/09/05 03:38:09;;;;;;;4.80;4.05;;;;;;;17.18;100.00;95610.38;5080399;27;20528;-69
2022/09/05 03:40:58;;;;;;;6.75;4.40;;;;;;;17.18;100.00;95610.38;5100264;27;20051;-69
2022/09/05 03:43:46;;;;;;;6.25;3.92;;;;;;;17.14;100.00;95607.47;5097136;28;20064;-69
2022/09/05 03:46:22;;;;;;;4.82;4.25;;;;;;;17.12;100.00;95611.38;5081250;28;20039;-69
2022/09/05 03:49:11;;;;;;;7.13;4.68;;;;;;;17.14;100.00;95619.81;5097222;28;20075;-69
2022/09/05 03:52:18;;;;;;;5.53;4.50;;;;;;;17.11;100.00;95626.38;5100918;27;20040;-69
2022/09/05 03:55:23;;;;;;;7.78;4.63;;;;;;;17.07;100.00;95629.75;5102704;27;20055;-69
2022/09/05 03:58:36;;;;;;;7.63;4.35;;;;;;;17.07;100.00;95629.75;5083267;28;20044;-69
2022/09/05 04:01:27;;;;;;;7.07;4.82;;;;;;;16.97;100.00;95633.91;5106690;27;20630;-69
2022/09/05 04:04:53;;;;;;;5.38;4.18;;;;;;;16.96;100.00;95640.22;5085127;28;20039;-69
2022/09/05 04:07:45;;;;;;;;;;;;;;;16.97;100.00;95647.06;5088324;27;20047;-69
2022/09/05 04:11:00;;;;;;;6.13;4.70;;;;;;;16.88;100.00;95643.28;5102228;28;19924;-69
2022/09/05 04:13:32;;;;;;;7.50;4.13;;;;;;;16.93;100.00;95645.19;5096350;28;20086;-69
2022/09/05 04:16:05;;;;;;;8.30;3.78;;;;;;;16.97;100.00;95646.25;5103852;28;20050;-69
2022/09/05 04:18:50;;;;;;;7.03;5.50;;;;;;;17.02;100.00;95648.16;5100223;27;20051;-69
2022/09/05 04:21:28;;;;;;;5.80;4.40;;;;;;;17.07;100.00;95650.81;5104967;27;20417;-69
2022/09/05 04:24:24;;;;;;;5.35;4.30;;;;;;;17.12;100.00;95653.47;5087749;27;21012;-69
2022/09/05 04:27:15;;;;;;;6.65;4.10;;;;;;;17.12;100.00;95656.13;5100900;27;20567;-69
2022/09/05 04:30:22;;;;;;;5.40;3.90;;;;;;;17.07;100.00;95650.81;5082997;27;20439;-69
2022/09/05 04:33:18;;;;;;;12.40;4.03;;;;;;;17.15;100.00;95656.41;5107112;27;20130;-68
2022/09/05 04:36:06;;;;;;;8.88;4.53;;;;;;;17.21;100.00;95657.22;5111714;27;20138;-69
2022/09/05 04:38:45;;;;;;;6.45;4.22;;;;;;;17.23;100.00;95660.41;5103503;27;20445;-69
2022/09/05 04:41:19;;;;;;;4.97;3.72;;;;;;;17.30;100.00;95660.19;5103855;27;20077;-67
2022/09/05 04:44:15;;;;;;;9.13;5.03;;;;;;;17.42;100.00;95670.56;5092151;28;20050;-73
2022/09/05 04:46:55;;;;;;;8.60;5.28;;;;;;;17.47;100.00;95671.38;5072055;28;20031;-74
2022/09/05 04:49:36;;;;;;;6.13;4.03;;;;;;;17.56;100.00;95674.34;5086739;27;20038;-68
2022/09/05 04:52:35;;;;;;;5.00;4.07;;;;;;;17.63;100.00;95674.91;5086523;28;20044;-67
2022/09/05 04:55:14;;;;;;;7.53;3.90;;;;;;;17.66;100.00;95679.63;5107228;27;20035;-68
2022/09/05 04:57:47;;;;;;;5.80;3.97;;;;;;;17.68;100.00;95685.47;5089513;28;20054;-68
2022/09/05 05:00:21;;;;;;;5.00;3.95;;;;;;;17.64;100.00;95691.50;5109237;27;20050;-67
2022/09/05 05:03:18;;;;;;;4.10;3.17;;;;;;;17.58;100.00;95688.03;5105546;27;20044;-67
2022/09/05 05:06:22;;;;;;;5.18;3.92;;;;;;;17.49;100.00;95674.53;5102601;27;20039;-67
2022/09/05 05:09:16;;;;;;;9.95;3.90;;;;;;;17.70;100.00;95691.28;5105765;27;20044;-67
2022/09/05 05:11:55;;;;;;;8.93;4.25;;;;;;;17.72;100.00;95681.28;5103221;27;20050;-68
2022/09/05 05:14:52;;;;;;;5.13;4.00;;;;;;;17.91;100.00;95707.22;5103577;27;20028;-67
2022/09/05 05:17:51;;;;;;;8.18;4.03;;;;;;;17.96;100.00;95705.41;5102601;27;20050;-66
2022/09/05 05:21:06;;;;;;;7.47;4.40;;;;;;;18.09;100.00;95706.78;5105398;27;20068;-68
2022/09/05 05:23:42;;;;;;;5.05;3.58;;;;;;;18.20;100.00;95709.47;5105292;27;20595;-68
2022/09/05 05:26:19;;;;;;;5.43;3.42;;;;;;;18.29;100.00;95713.19;5107750;27;20100;-67
2022/09/05 05:28:50;;;;;;;4.57;3.58;;;;;;;18.40;100.00;95719.28;5105610;27;20058;-67
2022/09/05 05:31:28;;;;;;;4.32;3.47;;;;;;;18.45;100.00;95721.97;5105688;27;20043;-68
2022/09/05 05:34:00;;;;;;;12.55;5.20;;;;;;;18.48;99.87;95718.81;5087123;27;20048;-67
2022/09/05 05:36:35;;;;;;;5.03;3.50;;;;;;;18.64;98.06;95720.44;5103795;27;20042;-68
2022/09/05 05:39:11;;;;;;;6.63;4.53;;;;;;;18.74;95.89;95719.66;5105019;27;20052;-67
2022/09/05 05:41:47;;;;;;;7.28;4.63;;;;;;;18.76;95.89;95722.81;5088974;27;20047;-67
2022/09/05 05:44:18;;;;;;;7.15;5.13;;;;;;;18.83;96.44;95712.84;5103429;27;20050;-67
2022/09/05 05:46:57;;;;;;;6.63;4.20;;;;;;;19.00;95.62;95727.69;5104869;27;20039;-67
2022/09/05 05:49:33;;;;;;;5.57;3.15;;;;;;;19.16;95.59;95731.91;5105074;27;20477;-67
2022/09/05 05:52:18;;;;;;;6.15;4.45;;;;;;;19.40;93.88;95734.03;5104718;27;20127;-67
2022/09/05 05:54:53;;;;;;;4.70;3.95;;;;;;;19.61;91.33;95727.69;5106896;27;20055;-68
2022/09/05 05:58:05;;;;;;;6.03;4.20;;;;;;;19.76;90.05;95728.75;5103371;27;20058;-67
2022/09/05 06:00:44;;;;;;;6.70;4.75;;;;;;;19.84;91.02;95731.66;5107812;27;20054;-67
2022/09/05 06:03:46;;;;;;;4.85;3.42;;;;;;;19.99;88.69;95733.47;5104618;27;20040;-68
2022/09/05 06:06:58;;;;;;;6.47;3.22;;;;;;;20.00;88.30;95735.03;5065239;28;20047;-68
2022/09/05 06:10:06;;;;;;;4.95;3.00;;;;;;;20.00;89.54;95729.72;5079065;27;20306;-68
2022/09/05 06:13:01;;;;;;;4.28;3.10;;;;;;;19.68;88.42;95733.50;5086370;28;20438;-67
2022/09/05 06:16:12;;;;;;;6.45;3.08;;;;;;;19.83;87.86;95739.84;5088679;27;20084;-68
2022/09/05 06:19:10;;;;;;;6.60;3.50;;;;;;;20.05;87.90;95745.59;5097082;27;20078;-67
2022/09/05 06:21:59;;;;;;;4.85;2.85;;;;;;;20.14;84.53;95739.75;5103885;27;20046;-68
2022/09/05 06:25:06;;;;;;;4.20;3.10;;;;;;;20.33;83.87;95732.81;5100027;27;20039;-67
2022/09/05 06:27:51;;;;;;;4.75;3.22;;;;;;;20.49;83.18;95744.16;5102611;27;20543;-67
2022/09/05 06:31:03;;;;;;;4.65;2.97;;;;;;;20.46;80.81;95751.84;5081515;28;20047;-68
2022/09/05 06:34:25;;;;;;;7.60;3.25;;;;;;;20.61;80.13;95759.72;5100172;27;20044;-67
2022/09/05 06:37:32;;;;;;;4.60;2.60;;;;;;;20.76;73.45;95756.19;5101775;27;20035;-67
2022/09/05 06:40:17;;;;;;;3.25;2.42;;;;;;;20.83;70.48;95767.28;5098608;27;20068;-67
2022/09/05 06:43:21;;;;;;;2.22;1.80;;;;;;;20.75;68.85;95768.66;5100640;27;20039;-68
2022/09/05 06:45:51;;;;;;;3.30;2.35;;;;;;;20.83;70.54;95761.22;5100887;27;20071;-68
2022/09/05 06:48:51;;;;;;;3.00;2.30;;;;;;;20.87;68.88;95772.81;5102617;27;20529;-67
2022/09/05 06:52:06;;;;;;;3.33;2.60;;;;;;;20.76;69.09;95767.59;5096668;27;20042;-67
2022/09/05 06:55:34;;;;;;;3.47;2.10;;;;;;;21.04;68.50;95767.97;5085109;27;20031;-69
2022/09/05 06:58:35;;;;;;;4.32;2.17;;;;;;;21.05;66.12;95766.91;5063230;27;20063;-69
2022/09/05 07:01:03;;;;;;;3.88;2.28;;;;;;;20.95;66.06;95759.03;5100880;27;20504;-71
2022/09/05 07:04:11;;;;;;;3.28;2.45;;;;;;;20.90;66.74;95740.50;5081936;27;20060;-70
2022/09/05 07:07:26;;;;;;;3.05;2.10;;;;;;;21.23;66.33;95759.38;5101544;27;20039;-71
2022/09/05 07:10:03;;;;;;;4.68;2.50;;;;;;;21.51;68.35;95761.31;5101972;27;20092;-71
2022/09/05 07:13:23;;;;;;;3.60;2.97;;;;;;;21.89;65.73;95761.50;5102813;27;20057;-71
2022/09/05 07:16:22;;;;;;;4.18;2.85;;;;;;;22.04;64.65;95762.41;5100266;27;20062;-71
2022/09/05 07:19:28;;;;;;;2.33;1.80;;;;;;;22.10;60.04;95761.31;5104572;27;20078;-70
2022/09/05 07:22:31;;;;;;;2.83;2.30;;;;;;;22.11;61.78;95752.28;5084294;27;20073;-71
2022/09/05 07:25:22;;;;;;;3.83;1.92;;;;;;;22.08;61.47;95747.53;5084134;28;20043;-71
2022/09/05 07:27:55;;;;;;;3.22;2.15;;;;;;;22.24;59.75;95751.59;5084308;27;20396;-71
2022/09/05 07:30:51;;;;;;;4.25;2.53;;;;;;;22.19;59.98;95754.31;5084072;27;20043;-70
2022/09/05 07:33:27;;;;;;;2.25;1.80;;;;;;;22.03;60.67;95750.25;5085795;28;20062;-66
2022/09/05 07:36:04;;;;;;;3.50;2.20;;;;;;;21.91;60.94;95737.34;5099661;27;20070;-71
2022/09/05 07:38:35;;;;;;;5.03;2.30;;;;;;;22.13;60.97;95740.31;5102160;27;20047;-72
2022/09/05 07:41:29;;;;;;;3.28;2.28;;;;;;;22.23;60.15;95750.03;5100701;27;20535;-71
2022/09/05 07:44:17;;;;;;;3.65;2.13;;;;;;;22.10;60.62;95748.06;5099275;27;20603;-71
2022/09/05 07:46:55;;;;;;;4.10;2.00;;;;;;;22.02;60.99;95748.66;5102975;27;20126;-72
2022/09/05 07:49:26;;;;;;;3.03;2.40;;;;;;;22.22;61.33;95748.44;5085895;27;20286;-72
2022/09/05 07:52:00;;;;;;;5.78;2.20;;;;;;;22.45;61.78;95744.22;5080634;27;20575;-72
2022/09/05 07:54:51;;;;;;;3.35;1.80;;;;;;;22.66;60.78;95742.09;5084989;27;20415;-71
2022/09/05 07:57:42;;;;;;;2.35;1.63;;;;;;;22.51;57.38;95751.06;5105560;27;20085;-72
2022/09/05 08:00:21;;;;;;;3.65;1.90;;;;;;;22.36;58.54;95745.13;5082735;28;20058;-71
2022/09/05 08:02:59;;;;;;;3.42;2.15;;;;;;;22.49;57.86;95747.91;5084562;27;20047;-70
2022/09/05 08:05:38;;;;;;;3.20;2.20;;;;;;;22.70;59.78;95737.78;5103424;28;20040;-71
2022/09/05 08:08:10;;;;;;;5.47;2.50;;;;;;;22.96;58.68;95745.44;5099720;28;20051;-71
2022/09/05 08:10:43;;;;;;;3.05;2.10;;;;;;;23.06;58.61;95745.31;5086703;28;20040;-71
2022/09/05 08:13:42;;;;;;;2.75;2.20;;;;;;;23.41;57.95;95753.84;5102071;28;20499;-71
2022/09/05 08:16:19;;;;;;;2.53;1.92;;;;;;;23.65;54.21;95750.25;5087469;28;20039;-70
2022/09/05 08:19:24;;;;;;;4.40;3.83;;;;;;;23.75;54.02;95750.09;5100902;28;20046;-71
2022/09/05 08:21:52;;;;;;;;;;;;;;;23.78;53.55;95749.50;5084480;28;20043;-66
2022/09/05 08:24:25;;;;;;;2.15;1.67;;;;;;;23.94;51.04;95762.56;5102420;28;19979;-66
2022/09/05 08:27:03;;;;;;;2.55;2.05;;;;;;;24.05;51.07;95758.63;5103272;28;20047;-66
2022/09/05 08:29:39;;;;;;;3.35;2.17;;;;;;;24.16;54.06;95754.69;5108496;28;20055;-66
2022/09/05 08:32:24;;;;;;;3.53;2.05;;;;;;;24.27;52.79;95749.97;5101442;28;20514;-66
2022/09/05 08:35:00;;;;;;;;;;;;;;;24.27;52.01;95754.50;5106782;27;20100;-65
2022/09/05 08:37:29;;;;;;;3.25;2.10;;;;;;;24.30;52.38;95759.25;5100834;28;19935;-66
2022/09/05 08:40:01;;;;;;;2.10;1.45;;;;;;;24.34;53.89;95754.91;5100859;27;20055;-66
2022/09/05 08:42:49;;;;;;;2.33;1.73;;;;;;;24.53;50.34;95752.19;5102748;28;20048;-66
2022/09/05 08:46:00;;;;;;;2.83;2.25;;;;;;;24.73;51.09;95750.97;5099422;27;20044;-66
2022/09/05 08:49:13;;;;;;;2.72;2.00;;;;;;;25.06;49.38;95753.44;5101694;28;20039;-66
2022/09/05 08:52:13;;;;;;;2.08;1.67;;;;;;;25.28;46.67;95756.19;5101713;27;20051;-66
2022/09/05 08:54:45;;;;;;;2.10;1.65;;;;;;;25.49;45.37;95755.69;5103029;28;20043;-66
2022/09/05 08:57:43;;;;;;;2.47;1.67;;;;;;;25.38;44.29;95749.81;5100047;27;20058;-66
2022/09/05 09:00:18;;;;;;;1.95;1.63;;;;;;;24.70;45.09;95747.00;5098724;28;20047;-67
2022/09/05 09:03:26;;;;;;;6.93;2.17;;;;;;;24.91;47.09;95747.38;5101904;28;20047;-65
2022/09/05 09:06:13;;;;;;;2.65;2.05;;;;;;;24.72;47.53;95749.38;5068751;27;20568;-66
2022/09/05 09:08:54;;;;;;;5.47;2.38;;;;;;;24.57;48.57;95753.94;5105043;27;20051;-66
2022/09/05 09:11:34;;;;;;;5.43;2.42;;;;;;;24.40;49.72;95745.75;5105016;27;20508;-65
2022/09/05 09:14:30;;;;;;;3.58;2.78;;;;;;;24.10;50.64;95739.91;5109176;27;20055;-65
2022/09/05 09:17:16;;;;;;;11.27;10.10;;;;;;;23.63;51.95;95742.56;5107486;27;20535;-66
2022/09/05 09:19:58;;;;;;;2.80;2.22;;;;;;;23.51;52.94;95738.78;5108385;27;20047;-64
2022/09/05 09:22:55;;;;;;;4.65;2.58;;;;;;;23.63;51.90;95747.09;5107237;27;20046;-65
2022/09/05 09:25:37;;;;;;;2.80;2.25;;;;;;;23.37;52.58;95744.06;5109052;27;20036;-65
2022/09/05 09:28:32;;;;;;;6.03;3.03;;;;;;;23.41;54.37;95743.19;5102287;27;20039;-66
2022/09/05 09:31:28;;;;;;;5.10;2.90;;;;;;;23.52;53.07;95741.16;5106284;27;20054;-64
2022/09/05 09:34:19;;;;;;;5.13;2.17;;;;;;;23.39;52.95;95753.34;5104262;27;20443;-66
2022/09/05 09:37:02;;;;;;;3.35;2.38;;;;;;;23.21;53.22;95746.16;5101263;27;20593;-66
2022/09/05 09:39:45;;;;;;;7.05;2.85;;;;;;;23.17;53.31;95734.53;5103013;27;20059;-67
2022/09/05 09:42:30;;;;;;;7.53;2.72;;;;;;;23.41;51.86;95745.84;5100973;27;20047;-65
2022/09/05 09:45:17;;;;;;;3.33;2.20;;;;;;;23.58;53.48;95734.66;5102922;27;20310;-66
2022/09/05 09:48:09;;;;;;;3.40;2.30;;;;;;;23.72;51.03;95740.03;5100099;27;20040;-66
2022/09/05 09:50:42;;;;;;;3.20;2.75;;;;;;;24.13;49.46;95742.00;5105523;27;20046;-67
2022/09/05 09:53:43;;;;;;;3.05;2.28;;;;;;;24.76;48.46;95739.72;5102217;27;20048;-66
2022/09/05 09:56:13;;;;;;;3.33;2.38;;;;;;;24.99;47.66;95748.53;5101728;27;20035;-67
2022/09/05 09:59:07;;;;;;;2.60;2.13;;;;;;;25.06;47.09;95729.47;5104647;27;20043;-67
2022/09/05 10:01:53;;;;;;;3.03;2.28;;;;;;;24.57;48.14;95727.31;5103518;27;20051;-65
2022/09/05 10:05:13;;;;;;;6.50;2.72;;;;;;;24.82;48.04;95735.06;5085898;27;20106;-66
2022/09/05 10:08:29;;;;;;;3.25;2.08;;;;;;;25.44;47.84;95726.47;5024060;27;20634;-66
2022/09/05 10:11:37;;;;;;;4.88;2.20;;;;;;;25.61;46.80;95726.59;5105947;27;20112;-66
2022/09/05 10:15:07;;;;;;;3.30;2.50;;;;;;;25.51;46.34;95721.50;5105597;27;20071;-67
2022/09/05 10:17:57;;;;;;;4.60;2.10;;;;;;;25.97;44.82;95720.38;5108627;27;20543;-66
2022/09/05 10:20:29;;;;;;;5.53;2.35;;;;;;;26.58;42.27;95714.41;5105159;27;20043;-66
2022/09/05 10:23:02;;;;;;;2.38;1.50;;;;;;;26.55;42.03;95725.72;5100905;27;20123;-67
2022/09/05 10:25:56;;;;;;;2.70;1.70;;;;;;;26.44;41.41;95710.00;5105952;27;20060;-66
2022/09/05 10:28:42;;;;;;;2.90;1.63;;;;;;;26.81;41.14;95710.56;5106416;27;20062;-67
2022/09/05 10:31:20;;;;;;;2.65;1.83;;;;;;;27.31;41.51;95708.53;5102877;27;20039;-67
2022/09/05 10:34:43;;;;;;;2.50;1.90;;;;;;;27.95;39.69;95721.94;5109229;27;20043;-67
2022/09/05 10:37:44;;;;;;;2.08;1.63;;;;;;;28.15;38.21;95714.31;5101038;27;20043;-67
2022/09/05 10:40:16;;;;;;;2.67;1.90;;;;;;;28.10;39.20;95722.50;5101103;27;20040;-67
2022/09/05 10:42:50;;;;;;;2.90;1.92;;;;;;;28.34;37.06;95720.03;5103353;27;20527;-67
2022/09/05 10:45:48;;;;;;;2.40;1.73;;;;;;;28.39;36.29;95714.47;5102920;27;20051;-68
2022/09/05 10:48:35;;;;;;;3.15;2.00;;;;;;;28.60;36.95;95719.13;5105987;27;20043;-68
2022/09/05 10:51:15;;;;;;;3.03;1.55;;;;;;;28.54;35.10;95720.41;5086784;27;20042;-68
2022/09/05 10:54:13;;;;;;;1.80;1.50;;;;;;;28.53;35.87;95713.47;5103753;27;20043;-68
2022/09/05 10:56:54;;;;;;;15.75;10.00;;;;;;;28.32;34.38;95698.13;5105284;27;20048;-67
2022/09/05 10:59:30;;;;;;;4.78;2.50;;;;;;;28.65;35.51;95716.28;5100374;27;20528;-67
2022/09/05 11:02:22;;;;;;;4.05;3.30;;;;;;;28.78;34.71;95701.81;5106254;27;20039;-68
2022/09/05 11:05:06;;;;;;;1.50;1.20;;;;;;;28.95;34.92;95711.63;5102099;27;20054;-67
2022/09/05 11:08:04;;;;;;;4.35;1.98;;;;;;;29.09;34.07;95702.53;5098689;27;20103;-68
2022/09/05 11:10:34;;;;;;;1.85;1.30;;;;;;;28.82;35.62;95707.31;5103320;27;20055;-67
2022/09/05 11:13:46;;;;;;;2.60;1.63;;;;;;;28.93;33.82;95711.16;5103168;27;20348;-67
2022/09/05 11:16:48;;;;;;;2.78;1.58;;;;;;;29.13;33.46;95712.25;5022448;28;20053;-68
2022/09/05 11:19:27;;;;;;;3.58;1.50;;;;;;;29.28;34.56;95699.38;5112669;27;20053;-68
2022/09/05 11:22:01;;;;;;;2.53;1.65;;;;;;;29.38;32.75;95693.63;5104264;27;20047;-68
2022/09/05 11:24:58;;;;;;;1.92;1.25;;;;;;;29.06;33.71;95698.59;5108413;27;20053;-68
2022/09/05 11:27:33;;;;;;;1.60;1.27;;;;;;;29.32;33.21;95695.72;5104926;27;20043;-68
2022/09/05 11:30:06;;;;;;;3.90;1.80;;;;;;;29.66;32.80;95693.03;5104130;27;20043;-68
2022/09/05 11:33:04;;;;;;;2.05;1.50;;;;;;;29.62;33.08;95702.84;5100728;27;20459;-68
2022/09/05 11:36:00;;;;;;;2.58;2.00;;;;;;;29.24;34.60;95698.47;5088619;27;20027;-73
2022/09/05 11:39:14;;;;;;;2.47;1.40;;;;;;;29.70;32.36;95693.94;5108845;27;20122;-72
2022/09/05 11:42:14;;;;;;;2.50;1.92;;;;;;;30.31;31.82;95691.31;5088531;27;20065;-72
2022/09/05 11:45:12;;;;;;;2.03;1.40;;;;;;;30.82;31.43;95687.44;5092202;27;20432;-73
2022/09/05 11:48:16;;;;;;;2.60;1.52;;;;;;;31.02;29.67;95691.88;5090855;28;20046;-72
2022/09/05 11:50:55;;;;;;;2.00;1.50;;;;;;;30.85;30.67;95686.78;5091550;27;20448;-73
2022/09/05 11:53:45;;;;;;;1.83;1.38;;;;;;;30.97;30.03;95688.66;5110799;27;20461;-74
2022/09/05 11:56:33;;;;;;;5.82;1.75;;;;;;;31.33;29.67;95685.06;5086921;28;20036;-73
2022/09/05 11:59:42;;;;;;;2.42;1.58;;;;;;;31.55;29.49;95680.25;5065560;28;20384;-73
2022/09/05 12:02:31;;;;;;;2.83;1.98;;;;;;;31.95;28.65;95682.00;5105654;27;20048;-73
2022/09/05 12:05:25;;;;;;;2.97;1.90;;;;;;;32.44;27.14;95681.63;5080943;28;20527;-73
2022/09/05 12:08:37;;;;;;;3.75;1.92;;;;;;;32.99;25.68;95673.56;5101559;28;20036;-74
2022/09/05 12:11:04;;;;;;;2.08;1.48;;;;;;;33.24;24.97;95687.56;5097575;28;20066;-73
2022/09/05 12:13:41;;;;;;;3.20;1.42;;;;;;;33.00;25.20;95679.72;5101419;28;20119;-74
2022/09/05 12:16:22;;;;;;;1.55;1.33;;;;;;;33.22;24.22;95679.03;5094500;28;20056;-73
2022/09/05 12:19:36;;;;;;;3.50;1.75;;;;;;;33.39;25.22;95679.75;5084252;28;20165;-73
2022/09/05 12:22:16;;;;;;;4.07;1.17;;;;;;;33.50;25.12;95665.28;5052108;28;20524;-67
2022/09/05 12:24:55;;;;;;;2.45;1.50;;;;;;;33.42;25.05;95679.00;5100158;28;20040;-68
2022/09/05 12:27:47;;;;;;;2.13;1.38;;;;;;;33.49;24.99;95671.03;5099431;28;20036;-68
2022/09/05 12:30:37;;;;;;;4.63;1.58;;;;;;;33.40;25.85;95648.88;5097969;28;20051;-78
2022/09/05 12:33:30;;;;;;;2.03;1.40;;;;;;;33.66;25.50;95672.53;5100523;28;20373;-79
2022/09/05 12:36:41;;;;;;;2.20;1.60;;;;;;;34.33;23.99;95677.47;5099542;28;20512;-79
2022/09/05 12:39:43;;;;;;;1.73;1.33;;;;;;;34.38;23.20;95669.06;5103988;27;20642;-79
2022/09/05 12:42:54;;;;;;;2.50;1.67;;;;;;;34.68;24.11;95673.69;5123642;27;20046;-79
2022/09/05 12:45:48;;;;;;;4.80;1.40;;;;;;;35.15;21.85;95675.06;5101608;27;20032;-78
2022/09/05 12:48:28;;;;;;;1.50;1.10;;;;;;;35.42;22.56;95680.41;5083272;28;20047;-77
2022/09/05 12:51:20;;;;;;;2.38;1.38;;;;;;;35.73;22.85;95681.13;5084331;27;20043;-73
2022/09/05 12:54:16;;;;;;;2.17;1.90;;;;;;;35.79;22.42;95666.06;5105449;27;20043;-78
2022/09/05 12:57:04;;;;;;;4.28;1.55;;;;;;;35.88;22.17;95685.50;5070634;27;20044;-79
2022/09/05 12:59:51;;;;;;;2.83;1.80;;;;;;;36.39;21.85;95675.06;5112317;27;20048;-73
2022/09/05 13:02:44;;;;;;;3.47;1.70;;;;;;;36.52;20.63;95673.59;5114577;27;20043;-73
2022/09/05 13:05:50;;;;;;;2.20;1.67;;;;;;;35.69;22.85;95650.47;5100095;28;20054;-72
2022/09/05 13:08:22;;;;;;;3.83;1.60;;;;;;;35.84;23.08;95673.09;5109525;27;20477;-74
2022/09/05 13:10:53;;;;;;;2.05;1.50;;;;;;;35.90;21.18;95666.94;5085613;27;20127;-74
2022/09/05 13:13:49;;;;;;;2.67;1.80;;;;;;;35.42;22.80;95664.19;5109216;27;20039;-75
2022/09/05 13:16:40;;;;;;;3.03;2.13;;;;;;;35.92;22.77;95650.31;5085630;27;20444;-75